McCaulley, Texas
Current Conditions -  °F | °C
As of 2:35 PM on Saturday 25 Oct 2014 (Local Time) from KSWW Reporting Station
Clear Clear  
Wind Chill: 85°   Ceiling: Unl
Heat Index: 85°   Visibility: 10mi
Dew Point: 45°   Wind: 8mph
Humidity: 24%   Direction: 190°S
Pressure: 30.16"   Gusts: NA
Location:  32.78°N, 100.21°W
Report Text: KSWW 251935Z AUTO 19007KT 10SM CLR 30/07 A3016 RMK AO2 T02970072
Loading
Personal Weather Stations






























Interactive Weather Map
Tropical Storm Tracking
New forecast layout! Learn more

10-Day Weather Forecast

Advertisements
Track Severe Weather on mobile